Time,TemperatureF,DewpointF,PressureIn,WindDirection,WindDirectionDegrees,WindSpeedMPH,WindSpeedGustMPH,Humidity,HourlyPrecipIn,Conditions,Clouds,dailyrainin,SoftwareType,DateUTC
2013-03-13 00:02:00,26.0,17.0,-100.00,WNW,295,11.0,19.0,66,-99.99,,,-99.99,,2013-03-13 05:02:00,
2013-03-13 00:12:00,26.0,17.0,-100.00,WNW,295,14.0,18.0,66,-99.99,,,-99.99,,2013-03-13 05:12:00,
2013-03-13 00:22:00,26.0,17.0,-100.00,NW,305,10.0,14.0,68,-99.99,,,-99.99,,2013-03-13 05:22:00,
2013-03-13 00:32:00,26.0,17.0,-100.00,NW,305,10.0,14.0,68,-99.99,,,-99.99,,2013-03-13 05:32:00,
2013-03-13 00:42:00,26.0,18.0,-100.00,WNW,290,11.0,19.0,71,-99.99,,,-99.99,,2013-03-13 05:42:00,
2013-03-13 00:52:00,26.0,19.0,-100.00,WNW,285,9.0,16.0,74,-99.99,,,-99.99,,2013-03-13 05:52:00,
2013-03-13 01:02:00,26.0,19.0,-100.00,WNW,285,9.0,16.0,74,-99.99,,,-99.99,,2013-03-13 06:02:00,
2013-03-13 01:12:00,26.0,19.0,-100.00,WNW,290,9.0,15.0,74,-99.99,,,-99.99,,2013-03-13 06:12:00,
2013-03-13 01:23:00,26.0,17.0,-100.00,WNW,285,11.0,20.0,70,-99.99,,,-99.99,,2013-03-13 06:23:00,
2013-03-13 01:32:00,26.0,17.0,-100.00,WNW,285,11.0,20.0,70,-99.99,,,-99.99,,2013-03-13 06:32:00,
2013-03-13 01:42:00,26.0,17.0,-100.00,WNW,300,14.0,17.0,70,-99.99,,,-99.99,,2013-03-13 06:42:00,
2013-03-13 01:52:00,26.0,17.0,-100.00,WNW,290,15.0,21.0,68,-99.99,,,-99.99,,2013-03-13 06:52:00,
2013-03-13 02:02:00,26.0,17.0,-100.00,WNW,290,15.0,21.0,68,-99.99,,,-99.99,,2013-03-13 07:02:00,
2013-03-13 02:12:00,26.0,17.0,-100.00,WNW,295,16.0,23.0,68,-99.99,,,-99.99,,2013-03-13 07:12:00,
2013-03-13 02:22:00,26.0,18.0,-100.00,WNW,295,9.0,16.0,71,-99.99,,,-99.99,,2013-03-13 07:22:00,
2013-03-13 02:32:00,26.0,18.0,-100.00,WNW,295,9.0,16.0,71,-99.99,,,-99.99,,2013-03-13 07:32:00,
2013-03-13 02:42:00,26.0,18.0,-100.00,WNW,290,9.0,17.0,72,-99.99,,,-99.99,,2013-03-13 07:42:00,
2013-03-13 02:53:00,25.0,18.0,-100.00,WNW,290,9.0,16.0,72,-99.99,,,-99.99,,2013-03-13 07:53:00,
2013-03-13 03:03:00,25.0,18.0,-100.00,WNW,290,9.0,16.0,72,-99.99,,,-99.99,,2013-03-13 08:03:00,
2013-03-13 03:12:00,25.0,18.0,-100.00,WNW,290,11.0,15.0,73,-99.99,,,-99.99,,2013-03-13 08:12:00,
2013-03-13 03:22:00,25.0,18.0,-100.00,WNW,295,9.0,16.0,74,-99.99,,,-99.99,,2013-03-13 08:22:00,
2013-03-13 03:32:00,25.0,18.0,-100.00,WNW,295,9.0,16.0,74,-99.99,,,-99.99,,2013-03-13 08:32:00,
2013-03-13 03:43:00,24.0,17.0,-100.00,WNW,300,11.0,18.0,73,-99.99,,,-99.99,,2013-03-13 08:43:00,
2013-03-13 03:54:00,24.0,17.0,-100.00,WNW,295,9.0,17.0,73,-99.99,,,-99.99,,2013-03-13 08:54:00,
2013-03-13 04:02:00,24.0,17.0,-100.00,WNW,295,9.0,17.0,73,-99.99,,,-99.99,,2013-03-13 09:02:00,
2013-03-13 04:12:00,24.0,17.0,-100.00,WNW,290,11.0,17.0,73,-99.99,,,-99.99,,2013-03-13 09:12:00,
2013-03-13 04:22:00,24.0,16.0,-100.00,WNW,295,9.0,15.0,73,-99.99,,,-99.99,,2013-03-13 09:22:00,
2013-03-13 04:32:00,24.0,16.0,-100.00,WNW,295,9.0,15.0,73,-99.99,,,-99.99,,2013-03-13 09:32:00,
2013-03-13 04:42:00,24.0,17.0,-100.00,WNW,300,11.0,15.0,75,-99.99,,,-99.99,,2013-03-13 09:42:00,
2013-03-13 04:52:00,24.0,17.0,-100.00,WNW,295,11.0,16.0,76,-99.99,,,-99.99,,2013-03-13 09:52:00,
2013-03-13 05:02:00,24.0,17.0,-100.00,WNW,295,11.0,16.0,76,-99.99,,,-99.99,,2013-03-13 10:02:00,
2013-03-13 05:12:00,24.0,17.0,-100.00,WNW,295,10.0,14.0,77,-99.99,,,-99.99,,2013-03-13 10:12:00,
2013-03-13 05:22:00,23.0,17.0,-100.00,WNW,285,9.0,14.0,77,-99.99,,,-99.99,,2013-03-13 10:22:00,
2013-03-13 05:32:00,23.0,17.0,-100.00,WNW,285,9.0,14.0,77,-99.99,,,-99.99,,2013-03-13 10:32:00,
2013-03-13 05:42:00,23.0,17.0,-100.00,WNW,295,9.0,14.0,77,-99.99,,,-99.99,,2013-03-13 10:42:00,
2013-03-13 05:52:00,23.0,17.0,-100.00,WNW,295,9.0,16.0,76,-99.99,,,-99.99,,2013-03-13 10:52:00,
2013-03-13 06:02:00,23.0,17.0,-100.00,WNW,295,9.0,16.0,76,-99.99,,,-99.99,,2013-03-13 11:02:00,
2013-03-13 06:12:00,23.0,17.0,-100.00,WNW,295,11.0,15.0,76,-99.99,,,-99.99,,2013-03-13 11:12:00,
2013-03-13 06:22:00,23.0,17.0,-100.00,WNW,295,9.0,14.0,77,-99.99,,,-99.99,,2013-03-13 11:22:00,
2013-03-13 06:32:00,23.0,17.0,-100.00,WNW,295,11.0,15.0,77,-99.99,,,-99.99,,2013-03-13 11:32:00,
2013-03-13 06:42:00,23.0,17.0,-100.00,WNW,295,11.0,15.0,77,-99.99,,,-99.99,,2013-03-13 11:42:00,
2013-03-13 06:52:00,23.0,17.0,-100.00,WNW,300,9.0,15.0,77,-99.99,,,-99.99,,2013-03-13 11:52:00,
2013-03-13 07:02:00,23.0,17.0,-100.00,WNW,300,9.0,15.0,77,-99.99,,,-99.99,,2013-03-13 12:02:00,
2013-03-13 07:12:00,23.0,17.0,-100.00,WNW,300,10.0,15.0,77,-99.99,,,-99.99,,2013-03-13 12:12:00,
2013-03-13 07:22:00,23.0,16.0,-100.00,WNW,300,11.0,18.0,76,-99.99,,,-99.99,,2013-03-13 12:22:00,
2013-03-13 07:32:00,23.0,16.0,-100.00,WNW,300,11.0,18.0,76,-99.99,,,-99.99,,2013-03-13 12:32:00,
2013-03-13 07:42:00,22.0,16.0,-100.00,WNW,300,11.0,14.0,77,-99.99,,,-99.99,,2013-03-13 12:42:00,
2013-03-13 07:53:00,22.0,16.0,-100.00,NW,305,11.0,16.0,77,-99.99,,,-99.99,,2013-03-13 12:53:00,
2013-03-13 08:02:00,22.0,16.0,-100.00,NW,305,11.0,16.0,77,-99.99,,,-99.99,,2013-03-13 13:02:00,
2013-03-13 08:12:00,22.0,16.0,-100.00,WNW,295,10.0,14.0,77,-99.99,,,-99.99,,2013-03-13 13:12:00,
2013-03-13 08:22:00,22.0,16.0,-100.00,WNW,300,10.0,15.0,77,-99.99,,,-99.99,,2013-03-13 13:22:00,
2013-03-13 08:33:00,22.0,16.0,-100.00,WNW,300,10.0,15.0,77,-99.99,,,-99.99,,2013-03-13 13:33:00,
2013-03-13 08:43:00,23.0,17.0,-100.00,NW,320,7.0,14.0,76,-99.99,,,-99.99,,2013-03-13 13:43:00,
2013-03-13 08:52:00,23.0,17.0,-100.00,NW,315,10.0,16.0,75,-99.99,,,-99.99,,2013-03-13 13:52:00,
2013-03-13 09:02:00,23.0,17.0,-100.00,NW,315,10.0,16.0,75,-99.99,,,-99.99,,2013-03-13 14:02:00,
2013-03-13 09:12:00,24.0,17.0,-100.00,NW,305,11.0,18.0,75,-99.99,,,-99.99,,2013-03-13 14:12:00,
2013-03-13 09:22:00,24.0,17.0,-100.00,NW,315,9.0,15.0,73,-99.99,,,-99.99,,2013-03-13 14:22:00,
2013-03-13 09:33:00,24.0,17.0,-100.00,NW,315,9.0,15.0,73,-99.99,,,-99.99,,2013-03-13 14:33:00,
2013-03-13 09:42:00,24.0,17.0,-100.00,NW,325,12.0,17.0,72,-99.99,,,-99.99,,2013-03-13 14:42:00,
2013-03-13 09:53:00,25.0,17.0,-100.00,NW,315,10.0,19.0,71,-99.99,,,-99.99,,2013-03-13 14:53:00,
2013-03-13 10:03:00,25.0,17.0,-100.00,NW,315,10.0,19.0,71,-99.99,,,-99.99,,2013-03-13 15:03:00,
2013-03-13 10:12:00,25.0,17.0,-100.00,NNW,345,11.0,18.0,69,-99.99,,,-99.99,,2013-03-13 15:12:00,
2013-03-13 10:22:00,26.0,17.0,-100.00,NNW,340,9.0,16.0,68,-99.99,,,-99.99,,2013-03-13 15:22:00,
2013-03-13 10:32:00,26.0,17.0,-100.00,NNW,340,9.0,16.0,68,-99.99,,,-99.99,,2013-03-13 15:32:00,
2013-03-13 10:42:00,25.0,16.0,-100.00,NNW,330,12.0,16.0,68,-99.99,,,-99.99,,2013-03-13 15:42:00,
2013-03-13 10:53:00,26.0,16.0,-100.00,NW,325,9.0,16.0,66,-99.99,,,-99.99,,2013-03-13 15:53:00,
2013-03-13 11:03:00,26.0,16.0,-100.00,NW,325,9.0,16.0,66,-99.99,,,-99.99,,2013-03-13 16:03:00,
2013-03-13 11:12:00,26.0,16.0,-100.00,NW,315,11.0,16.0,65,-99.99,,,-99.99,,2013-03-13 16:12:00,
2013-03-13 11:22:00,27.0,16.0,-100.00,NNW,335,11.0,16.0,64,-99.99,,,-99.99,,2013-03-13 16:22:00,
2013-03-13 11:32:00,27.0,16.0,-100.00,NNW,335,11.0,16.0,64,-99.99,,,-99.99,,2013-03-13 16:32:00,
2013-03-13 11:42:00,27.0,16.0,-100.00,NW,325,11.0,16.0,63,-99.99,,,-99.99,,2013-03-13 16:42:00,
2013-03-13 11:52:00,27.0,16.0,-100.00,NW,320,11.0,15.0,61,-99.99,,,-99.99,,2013-03-13 16:52:00,
2013-03-13 12:02:00,27.0,16.0,-100.00,NW,320,11.0,15.0,61,-99.99,,,-99.99,,2013-03-13 17:02:00,
2013-03-13 12:12:00,29.0,17.0,-100.00,NNW,345,7.0,14.0,59,-99.99,,,-99.99,,2013-03-13 17:12:00,
2013-03-13 12:22:00,29.0,16.0,-100.00,NNW,330,9.0,15.0,57,-99.99,,,-99.99,,2013-03-13 17:22:00,
2013-03-13 12:32:00,29.0,16.0,-100.00,NNW,330,9.0,15.0,57,-99.99,,,-99.99,,2013-03-13 17:32:00,
2013-03-13 12:42:00,30.0,16.0,-100.00,NW,310,7.0,16.0,55,-99.99,,,-99.99,,2013-03-13 17:42:00,
2013-03-13 12:53:00,30.0,15.0,-100.00,WNW,295,9.0,16.0,53,-99.99,,,-99.99,,2013-03-13 17:53:00,
2013-03-13 13:02:00,30.0,15.0,-100.00,WNW,295,9.0,16.0,53,-99.99,,,-99.99,,2013-03-13 18:02:00,
2013-03-13 13:12:00,31.0,16.0,-100.00,NW,305,10.0,15.0,53,-99.99,,,-99.99,,2013-03-13 18:12:00,
2013-03-13 13:22:00,31.0,15.0,-100.00,NW,325,11.0,17.0,50,-99.99,,,-99.99,,2013-03-13 18:22:00,
2013-03-13 13:33:00,31.0,15.0,-100.00,NW,325,11.0,17.0,50,-99.99,,,-99.99,,2013-03-13 18:33:00,
2013-03-13 13:42:00,33.0,16.0,-100.00,NNW,330,5.0,16.0,51,-99.99,,,-99.99,,2013-03-13 18:42:00,
2013-03-13 13:52:00,32.0,16.0,-100.00,WNW,300,8.0,16.0,50,-99.99,,,-99.99,,2013-03-13 18:52:00,
2013-03-13 14:02:00,32.0,16.0,-100.00,WNW,300,8.0,16.0,50,-99.99,,,-99.99,,2013-03-13 19:02:00,
2013-03-13 14:12:00,33.0,16.0,-100.00,WNW,295,9.0,14.0,49,-99.99,,,-99.99,,2013-03-13 19:12:00,
2013-03-13 14:22:00,33.0,15.0,-100.00,WNW,300,9.0,16.0,47,-99.99,,,-99.99,,2013-03-13 19:22:00,
2013-03-13 14:32:00,33.0,15.0,-100.00,WNW,300,9.0,16.0,47,-99.99,,,-99.99,,2013-03-13 19:32:00,
2013-03-13 14:43:00,33.0,14.0,-100.00,NW,305,9.0,14.0,45,-99.99,,,-99.99,,2013-03-13 19:43:00,
2013-03-13 14:53:00,34.0,14.0,-100.00,NW,320,5.0,15.0,43,-99.99,,,-99.99,,2013-03-13 19:53:00,
2013-03-13 15:02:00,34.0,14.0,-100.00,NW,320,5.0,15.0,43,-99.99,,,-99.99,,2013-03-13 20:02:00,
2013-03-13 15:12:00,34.0,13.0,-100.00,NW,310,10.0,15.0,42,-99.99,,,-99.99,,2013-03-13 20:12:00,
2013-03-13 15:22:00,34.0,13.0,-100.00,WNW,300,11.0,16.0,42,-99.99,,,-99.99,,2013-03-13 20:22:00,
2013-03-13 15:32:00,34.0,13.0,-100.00,WNW,300,11.0,16.0,42,-99.99,,,-99.99,,2013-03-13 20:32:00,
2013-03-13 15:42:00,34.0,13.0,-100.00,NW,310,9.0,15.0,41,-99.99,,,-99.99,,2013-03-13 20:42:00,
2013-03-13 15:52:00,35.0,15.0,-100.00,NW,320,8.0,14.0,42,-99.99,,,-99.99,,2013-03-13 20:52:00,
2013-03-13 16:02:00,35.0,15.0,-100.00,NW,320,8.0,14.0,42,-99.99,,,-99.99,,2013-03-13 21:02:00,
2013-03-13 16:12:00,34.0,13.0,-100.00,NW,305,10.0,16.0,41,-99.99,,,-99.99,,2013-03-13 21:12:00,
2013-03-13 16:22:00,35.0,13.0,-100.00,WNW,300,7.0,16.0,40,-99.99,,,-99.99,,2013-03-13 21:22:00,
2013-03-13 16:33:00,35.0,13.0,-100.00,WNW,300,7.0,16.0,40,-99.99,,,-99.99,,2013-03-13 21:33:00,
2013-03-13 16:42:00,36.0,13.0,-100.00,WNW,300,8.0,14.0,39,-99.99,,,-99.99,,2013-03-13 21:42:00,
2013-03-13 16:52:00,35.0,13.0,-100.00,WNW,295,11.0,14.0,40,-99.99,,,-99.99,,2013-03-13 21:52:00,
2013-03-13 17:02:00,35.0,13.0,-100.00,WNW,295,11.0,14.0,40,-99.99,,,-99.99,,2013-03-13 22:02:00,
2013-03-13 17:12:00,35.0,14.0,-100.00,WNW,300,9.0,15.0,41,-99.99,,,-99.99,,2013-03-13 22:12:00,
2013-03-13 17:22:00,35.0,13.0,-100.00,NW,305,9.0,14.0,40,-99.99,,,-99.99,,2013-03-13 22:22:00,
2013-03-13 17:32:00,35.0,13.0,-100.00,NW,305,9.0,14.0,40,-99.99,,,-99.99,,2013-03-13 22:32:00,
2013-03-13 17:42:00,35.0,14.0,-100.00,WNW,285,9.0,16.0,41,-99.99,,,-99.99,,2013-03-13 22:42:00,
2013-03-13 17:52:00,35.0,13.0,-100.00,NW,320,8.0,13.0,40,-99.99,,,-99.99,,2013-03-13 22:52:00,
2013-03-13 18:02:00,35.0,13.0,-100.00,NW,320,8.0,13.0,40,-99.99,,,-99.99,,2013-03-13 23:02:00,
2013-03-13 18:12:00,35.0,13.0,-100.00,NW,325,6.0,13.0,39,-99.99,,,-99.99,,2013-03-13 23:12:00,
2013-03-13 18:22:00,35.0,13.0,-100.00,NW,320,6.0,11.0,39,-99.99,,,-99.99,,2013-03-13 23:22:00,
2013-03-13 18:32:00,35.0,13.0,-100.00,NW,320,6.0,11.0,39,-99.99,,,-99.99,,2013-03-13 23:32:00,
2013-03-13 18:42:00,35.0,13.0,-100.00,NW,320,6.0,11.0,39,-99.99,,,-99.99,,2013-03-13 23:42:00,
2013-03-13 18:52:00,35.0,13.0,-100.00,WNW,295,6.0,9.0,40,-99.99,,,-99.99,,2013-03-13 23:52:00,
2013-03-13 19:02:00,35.0,13.0,-100.00,WNW,295,6.0,9.0,40,-99.99,,,-99.99,,2013-03-14 00:02:00,
2013-03-13 19:12:00,34.0,13.0,-100.00,WNW,290,4.0,10.0,41,-99.99,,,-99.99,,2013-03-14 00:12:00,
2013-03-13 19:22:00,34.0,14.0,-100.00,WNW,300,6.0,8.0,43,-99.99,,,-99.99,,2013-03-14 00:22:00,
2013-03-13 19:32:00,34.0,14.0,-100.00,WNW,300,6.0,8.0,43,-99.99,,,-99.99,,2013-03-14 00:32:00,
2013-03-13 19:42:00,33.0,14.0,-100.00,West,280,6.0,11.0,46,-99.99,,,-99.99,,2013-03-14 00:42:00,
2013-03-13 19:52:00,32.0,15.0,-100.00,West,280,5.0,9.0,49,-99.99,,,-99.99,,2013-03-14 00:52:00,
2013-03-13 20:02:00,32.0,15.0,-100.00,West,280,5.0,9.0,49,-99.99,,,-99.99,,2013-03-14 01:02:00,
2013-03-13 20:12:00,32.0,16.0,-100.00,West,280,5.0,7.0,52,-99.99,,,-99.99,,2013-03-14 01:12:00,
2013-03-13 20:22:00,31.0,17.0,-100.00,West,280,5.0,8.0,54,-99.99,,,-99.99,,2013-03-14 01:22:00,
2013-03-13 20:32:00,31.0,17.0,-100.00,West,280,5.0,8.0,54,-99.99,,,-99.99,,2013-03-14 01:32:00,
2013-03-13 20:42:00,31.0,17.0,-100.00,West,280,5.0,9.0,56,-99.99,,,-99.99,,2013-03-14 01:42:00,
2013-03-13 20:53:00,31.0,17.0,-100.00,WNW,295,6.0,7.0,56,-99.99,,,-99.99,,2013-03-14 01:53:00,
2013-03-13 21:02:00,31.0,17.0,-100.00,WNW,295,6.0,7.0,56,-99.99,,,-99.99,,2013-03-14 02:02:00,
2013-03-13 21:12:00,31.0,17.0,-100.00,WNW,285,4.0,8.0,55,-99.99,,,-99.99,,2013-03-14 02:12:00,
2013-03-13 21:22:00,30.0,17.0,-100.00,West,280,5.0,7.0,57,-99.99,,,-99.99,,2013-03-14 02:22:00,
2013-03-13 21:32:00,30.0,17.0,-100.00,West,280,5.0,7.0,57,-99.99,,,-99.99,,2013-03-14 02:32:00,
2013-03-13 21:42:00,30.0,17.0,-100.00,West,280,5.0,7.0,57,-99.99,,,-99.99,,2013-03-14 02:42:00,
2013-03-13 22:02:00,30.0,17.0,-100.00,WNW,295,4.0,6.0,58,-99.99,,,-99.99,,2013-03-14 03:02:00,
2013-03-13 22:12:00,29.0,17.0,-100.00,WNW,285,4.0,6.0,59,-99.99,,,-99.99,,2013-03-14 03:12:00,
2013-03-13 22:23:00,29.0,17.0,-100.00,WNW,285,3.0,4.0,61,-99.99,,,-99.99,,2013-03-14 03:23:00,
2013-03-13 22:32:00,29.0,17.0,-100.00,WNW,285,3.0,4.0,61,-99.99,,,-99.99,,2013-03-14 03:32:00,
2013-03-13 22:42:00,29.0,17.0,-100.00,WNW,285,4.0,5.0,61,-99.99,,,-99.99,,2013-03-14 03:42:00,
2013-03-13 22:53:00,28.0,18.0,-100.00,West,260,3.0,4.0,64,-99.99,,,-99.99,,2013-03-14 03:53:00,
2013-03-13 23:12:00,27.0,18.0,-100.00,West,275,3.0,4.0,68,-99.99,,,-99.99,,2013-03-14 04:12:00,
2013-03-13 23:22:00,27.0,19.0,-100.00,WNW,295,1.0,4.0,69,-99.99,,,-99.99,,2013-03-14 04:22:00,
2013-03-13 23:32:00,27.0,19.0,-100.00,WNW,295,1.0,4.0,69,-99.99,,,-99.99,,2013-03-14 04:32:00,
2013-03-13 23:42:00,27.0,18.0,-100.00,West,280,1.0,2.0,69,-99.99,,,-99.99,,2013-03-14 04:42:00,
2013-03-13 23:53:00,27.0,18.0,-100.00,West,265,0.0,2.0,69,-99.99,,,-99.99,,2013-03-14 04:53:00,